sensor_id;sensor_type;location;lat;lon;timestamp;pressure;altitude;pressure_sealevel;temperature;humidity
33949;BME280;20229;49.856;19.030;2023-05-09T00:01:19;102605.41;;;3.52;86.21
33949;BME280;20229;49.856;19.030;2023-05-09T00:06:33;102604.53;;;3.55;86.71
33949;BME280;20229;49.856;19.030;2023-05-09T00:11:48;102602.72;;;3.51;86.38
33949;BME280;20229;49.856;19.030;2023-05-09T00:17:01;102599.09;;;3.46;86.33
33949;BME280;20229;49.856;19.030;2023-05-09T00:22:17;102595.45;;;3.39;87.14
33949;BME280;20229;49.856;19.030;2023-05-09T00:27:33;102592.75;;;3.34;86.85
33949;BME280;20229;49.856;19.030;2023-05-09T00:32:47;102582.84;;;3.27;87.39
33949;BME280;20229;49.856;19.030;2023-05-09T00:38:01;102574.70;;;3.24;86.98
33949;BME280;20229;49.856;19.030;2023-05-09T00:43:15;102584.59;;;3.16;87.27
33949;BME280;20229;49.856;19.030;2023-05-09T00:48:29;102567.49;;;3.11;87.39
33949;BME280;20229;49.856;19.030;2023-05-09T00:53:45;102565.64;;;3.07;88.26
33949;BME280;20229;49.856;19.030;2023-05-09T00:58:59;102572.83;;;3.02;87.84
33949;BME280;20229;49.856;19.030;2023-05-09T01:04:13;102571.00;;;2.96;88.50
33949;BME280;20229;49.856;19.030;2023-05-09T01:09:37;102573.68;;;2.96;88.52
33949;BME280;20229;49.856;19.030;2023-05-09T01:15:05;102569.21;;;2.94;88.43
33949;BME280;20229;49.856;19.030;2023-05-09T01:20:29;102564.70;;;2.96;88.45
33949;BME280;20229;49.856;19.030;2023-05-09T01:31:12;102579.00;;;2.82;88.58
33949;BME280;20229;49.856;19.030;2023-05-09T01:36:29;102567.31;;;2.77;88.88
33949;BME280;20229;49.856;19.030;2023-05-09T01:41:46;102559.20;;;2.74;88.25
33949;BME280;20229;49.856;19.030;2023-05-09T01:47:03;102562.76;;;2.67;88.84
33949;BME280;20229;49.856;19.030;2023-05-09T01:52:21;102558.22;;;2.60;88.94
33949;BME280;20229;49.856;19.030;2023-05-09T01:57:38;102549.16;;;2.50;89.51
33949;BME280;20229;49.856;19.030;2023-05-09T02:02:53;102549.15;;;2.44;89.38
33949;BME280;20229;49.856;19.030;2023-05-09T02:08:08;102539.22;;;2.38;89.58
33949;BME280;20229;49.856;19.030;2023-05-09T02:13:23;102536.50;;;2.35;89.21
33949;BME280;20229;49.856;19.030;2023-05-09T02:18:37;102537.37;;;2.31;89.74
33949;BME280;20229;49.856;19.030;2023-05-09T02:23:52;102538.27;;;2.32;89.78
33949;BME280;20229;49.856;19.030;2023-05-09T02:29:06;102533.75;;;2.29;90.07
33949;BME280;20229;49.856;19.030;2023-05-09T02:34:21;102529.28;;;2.31;91.01
33949;BME280;20229;49.856;19.030;2023-05-09T02:39:36;102532.01;;;2.34;91.35
33949;BME280;20229;49.856;19.030;2023-05-09T02:44:51;102529.30;;;2.36;91.30
33949;BME280;20229;49.856;19.030;2023-05-09T02:50:06;102532.03;;;2.37;91.49
33949;BME280;20229;49.856;19.030;2023-05-09T02:55:21;102528.41;;;2.35;91.52
33949;BME280;20229;49.856;19.030;2023-05-09T03:00:35;102534.70;;;2.34;92.99
33949;BME280;20229;49.856;19.030;2023-05-09T03:05:49;102533.88;;;2.45;92.59
33949;BME280;20229;49.856;19.030;2023-05-09T03:11:03;102528.52;;;2.54;95.04
33949;BME280;20229;49.856;19.030;2023-05-09T03:16:17;102530.34;;;2.61;95.47
33949;BME280;20229;49.856;19.030;2023-05-09T03:21:31;102528.61;;;2.66;94.19
33949;BME280;20229;49.856;19.030;2023-05-09T03:26:45;102532.24;;;2.73;93.55
33949;BME280;20229;49.856;19.030;2023-05-09T03:31:59;102523.23;;;2.75;94.23
33949;BME280;20229;49.856;19.030;2023-05-09T03:37:13;102522.38;;;2.79;94.35
33949;BME280;20229;49.856;19.030;2023-05-09T03:42:27;102525.99;;;2.84;95.07
33949;BME280;20229;49.856;19.030;2023-05-09T03:47:41;102528.70;;;2.87;94.05
33949;BME280;20229;49.856;19.030;2023-05-09T03:52:54;102528.70;;;2.89;94.00
33949;BME280;20229;49.856;19.030;2023-05-09T03:58:10;102530.52;;;2.92;93.39
33949;BME280;20229;49.856;19.030;2023-05-09T04:03:26;102532.35;;;2.97;93.76
33949;BME280;20229;49.856;19.030;2023-05-09T04:08:40;102524.28;;;3.05;93.68
33949;BME280;20229;49.856;19.030;2023-05-09T04:13:55;102526.09;;;3.14;95.03
33949;BME280;20229;49.856;19.030;2023-05-09T04:19:10;102532.45;;;3.35;93.59
33949;BME280;20229;49.856;19.030;2023-05-09T04:24:24;102522.61;;;3.56;94.76
33949;BME280;20229;49.856;19.030;2023-05-09T04:29:38;102528.03;;;3.77;93.39
33949;BME280;20229;49.856;19.030;2023-05-09T04:34:51;102530.77;;;3.96;94.03
33949;BME280;20229;49.856;19.030;2023-05-09T04:40:06;102525.34;;;4.11;93.19
33949;BME280;20229;49.856;19.030;2023-05-09T04:45:22;102519.94;;;4.25;93.66
33949;BME280;20229;49.856;19.030;2023-05-09T04:50:36;102516.28;;;4.43;92.24
33949;BME280;20229;49.856;19.030;2023-05-09T04:55:50;102510.83;;;4.58;92.90
33949;BME280;20229;49.856;19.030;2023-05-09T05:01:04;102507.16;;;4.81;91.70
33949;BME280;20229;49.856;19.030;2023-05-09T05:06:20;102514.24;;;5.09;92.09
33949;BME280;20229;49.856;19.030;2023-05-09T05:11:34;102515.00;;;5.37;91.48
33949;BME280;20229;49.856;19.030;2023-05-09T05:16:47;102515.69;;;5.70;89.58
33949;BME280;20229;49.856;19.030;2023-05-09T05:22:01;102499.12;;;6.11;88.62
33949;BME280;20229;49.856;19.030;2023-05-09T05:27:18;102493.38;;;7.16;87.72
33949;BME280;20229;49.856;19.030;2023-05-09T05:32:31;102485.76;;;12.46;68.47
33949;BME280;20229;49.856;19.030;2023-05-09T05:37:45;102482.88;;;15.14;60.71
33949;BME280;20229;49.856;19.030;2023-05-09T05:42:59;102482.29;;;16.37;51.28
33949;BME280;20229;49.856;19.030;2023-05-09T05:48:13;102463.27;;;19.71;47.67
33949;BME280;20229;49.856;19.030;2023-05-09T05:53:27;102465.77;;;22.18;42.21
33949;BME280;20229;49.856;19.030;2023-05-09T05:58:41;102462.32;;;23.98;33.66
33949;BME280;20229;49.856;19.030;2023-05-09T06:03:55;102471.11;;;24.78;32.24
33949;BME280;20229;49.856;19.030;2023-05-09T06:09:09;102459.31;;;26.46;31.64
33949;BME280;20229;49.856;19.030;2023-05-09T06:14:23;102448.96;;;28.33;29.19
33949;BME280;20229;49.856;19.030;2023-05-09T06:19:37;102431.71;;;29.92;27.83
33949;BME280;20229;49.856;19.030;2023-05-09T06:24:51;102433.37;;;31.01;22.21
33949;BME280;20229;49.856;19.030;2023-05-09T06:30:06;102428.93;;;31.31;22.81
33949;BME280;20229;49.856;19.030;2023-05-09T06:35:20;102424.78;;;31.89;23.59
33949;BME280;20229;49.856;19.030;2023-05-09T06:40:34;102430.32;;;32.29;22.79
33949;BME280;20229;49.856;19.030;2023-05-09T06:45:48;102421.16;;;32.73;22.62
33949;BME280;20229;49.856;19.030;2023-05-09T06:51:02;102418.38;;;33.32;22.17
33949;BME280;20229;49.856;19.030;2023-05-09T06:56:16;102406.81;;;33.93;20.31
33949;BME280;20229;49.856;19.030;2023-05-09T07:01:33;102403.49;;;35.79;21.12
33949;BME280;20229;49.856;19.030;2023-05-09T07:06:47;102394.46;;;36.24;20.24
33949;BME280;20229;49.856;19.030;2023-05-09T07:12:02;102396.45;;;37.09;18.51
33949;BME280;20229;49.856;19.030;2023-05-09T07:17:16;102395.59;;;37.02;16.48
33949;BME280;20229;49.856;19.030;2023-05-09T07:22:30;102386.16;;;37.08;17.52
33949;BME280;20229;49.856;19.030;2023-05-09T07:27:44;102372.34;;;37.19;17.97
33949;BME280;20229;49.856;19.030;2023-05-09T07:32:58;102359.55;;;37.86;16.88
33949;BME280;20229;49.856;19.030;2023-05-09T07:38:12;102359.24;;;38.39;16.14
33949;BME280;20229;49.856;19.030;2023-05-09T07:43:26;102354.31;;;38.96;15.33
33949;BME280;20229;49.856;19.030;2023-05-09T07:48:40;102351.05;;;39.11;15.57
33949;BME280;20229;49.856;19.030;2023-05-09T07:53:54;102344.67;;;38.47;16.34
33949;BME280;20229;49.856;19.030;2023-05-09T07:59:08;102335.49;;;38.45;15.33
33949;BME280;20229;49.856;19.030;2023-05-09T08:04:24;102329.41;;;38.85;16.52
33949;BME280;20229;49.856;19.030;2023-05-09T08:09:38;102336.17;;;37.26;16.49
33949;BME280;20229;49.856;19.030;2023-05-09T08:14:53;102334.77;;;36.50;17.26
33949;BME280;20229;49.856;19.030;2023-05-09T08:20:08;102321.20;;;35.44;17.41
33949;BME280;20229;49.856;19.030;2023-05-09T08:25:23;102327.93;;;32.79;18.71
33949;BME280;20229;49.856;19.030;2023-05-09T08:30:36;102322.61;;;29.19;22.82
33949;BME280;20229;49.856;19.030;2023-05-09T08:35:54;102324.84;;;27.12;25.62
33949;BME280;20229;49.856;19.030;2023-05-09T08:41:09;102316.14;;;26.12;26.01
33949;BME280;20229;49.856;19.030;2023-05-09T08:46:33;102311.34;;;25.25;26.92
33949;BME280;20229;49.856;19.030;2023-05-09T08:51:47;102318.06;;;24.09;29.01
33949;BME280;20229;49.856;19.030;2023-05-09T08:57:01;102309.13;;;23.30;30.12
33949;BME280;20229;49.856;19.030;2023-05-09T09:02:15;102305.60;;;23.17;31.25
33949;BME280;20229;49.856;19.030;2023-05-09T09:07:29;102292.20;;;23.00;31.77
33949;BME280;20229;49.856;19.030;2023-05-09T09:12:47;102299.41;;;22.35;32.10
33949;BME280;20229;49.856;19.030;2023-05-09T09:18:08;102300.29;;;21.89;34.00
33949;BME280;20229;49.856;19.030;2023-05-09T09:23:23;102304.67;;;21.32;33.85
33949;BME280;20229;49.856;19.030;2023-05-09T09:28:38;102297.30;;;20.70;34.94
33949;BME280;20229;49.856;19.030;2023-05-09T09:34:12;102294.79;;;20.55;35.99
33949;BME280;20229;49.856;19.030;2023-05-09T09:39:36;102284.78;;;20.39;37.22
33949;BME280;20229;49.856;19.030;2023-05-09T09:44:55;102275.55;;;20.39;36.43
33949;BME280;20229;49.856;19.030;2023-05-09T09:50:17;102266.89;;;19.92;37.62
33949;BME280;20229;49.856;19.030;2023-05-09T09:55:33;102279.99;;;20.03;36.61
33949;BME280;20229;49.856;19.030;2023-05-09T10:01:10;102266.44;;;19.73;37.07
33949;BME280;20229;49.856;19.030;2023-05-09T10:06:14;102265.01;;;19.80;36.38
33949;BME280;20229;49.856;19.030;2023-05-09T10:11:29;102245.82;;;19.77;36.37
33949;BME280;20229;49.856;19.030;2023-05-09T10:16:43;102250.84;;;19.57;37.76
33949;BME280;20229;49.856;19.030;2023-05-09T10:22:05;102252.33;;;19.36;37.54
33949;BME280;20229;49.856;19.030;2023-05-09T10:27:24;102242.94;;;19.11;38.87
33949;BME280;20229;49.856;19.030;2023-05-09T10:32:47;102238.82;;;18.77;37.64
33949;BME280;20229;49.856;19.030;2023-05-09T10:38:05;102225.90;;;18.49;40.78
33949;BME280;20229;49.856;19.030;2023-05-09T10:43:20;102215.31;;;18.56;40.28
33949;BME280;20229;49.856;19.030;2023-05-09T10:48:38;102229.17;;;18.27;39.95
33949;BME280;20229;49.856;19.030;2023-05-09T10:53:53;102223.92;;;18.08;40.79
33949;BME280;20229;49.856;19.030;2023-05-09T11:04:33;102200.85;;;18.09;39.39
33949;BME280;20229;49.856;19.030;2023-05-09T11:09:52;102200.80;;;18.52;42.52
33949;BME280;20229;49.856;19.030;2023-05-09T11:15:11;102194.12;;;18.69;39.10
33949;BME280;20229;49.856;19.030;2023-05-09T11:20:27;102189.37;;;18.85;38.72
33949;BME280;20229;49.856;19.030;2023-05-09T11:25:45;102184.05;;;19.09;40.84
33949;BME280;20229;49.856;19.030;2023-05-09T11:31:09;102179.73;;;19.18;37.65
33949;BME280;20229;49.856;19.030;2023-05-09T11:36:28;102180.79;;;19.43;38.71
33949;BME280;20229;49.856;19.030;2023-05-09T11:41:47;102164.09;;;19.44;39.04
33949;BME280;20229;49.856;19.030;2023-05-09T11:47:01;102152.03;;;19.05;37.99
33949;BME280;20229;49.856;19.030;2023-05-09T11:52:17;102141.31;;;19.14;40.28
33949;BME280;20229;49.856;19.030;2023-05-09T11:57:31;102137.03;;;19.35;37.98
33949;BME280;20229;49.856;19.030;2023-05-09T12:02:45;102138.27;;;19.44;38.10
33949;BME280;20229;49.856;19.030;2023-05-09T12:08:02;102118.77;;;19.45;37.16
33949;BME280;20229;49.856;19.030;2023-05-09T12:13:19;102111.49;;;19.70;38.77
33949;BME280;20229;49.856;19.030;2023-05-09T12:18:33;102113.33;;;19.56;37.54
33949;BME280;20229;49.856;19.030;2023-05-09T12:23:47;102094.39;;;19.38;37.62
33949;BME280;20229;49.856;19.030;2023-05-09T12:29:02;102096.27;;;19.37;36.82
33949;BME280;20229;49.856;19.030;2023-05-09T12:34:16;102096.38;;;19.35;37.99
33949;BME280;20229;49.856;19.030;2023-05-09T12:39:31;102081.00;;;19.44;35.84
33949;BME280;20229;49.856;19.030;2023-05-09T12:44:48;102076.13;;;19.86;35.27
33949;BME280;20229;49.856;19.030;2023-05-09T12:50:04;102069.21;;;20.04;34.90
33949;BME280;20229;49.856;19.030;2023-05-09T12:55:18;102065.22;;;19.96;35.34
33949;BME280;20229;49.856;19.030;2023-05-09T13:06:27;102048.30;;;19.75;35.84
33949;BME280;20229;49.856;19.030;2023-05-09T13:11:41;102036.15;;;19.65;35.61
33949;BME280;20229;49.856;19.030;2023-05-09T13:16:55;102031.02;;;19.58;34.55
33949;BME280;20229;49.856;19.030;2023-05-09T13:22:09;102013.52;;;19.32;35.03
33949;BME280;20229;49.856;19.030;2023-05-09T13:27:23;102025.15;;;18.99;35.98
33949;BME280;20229;49.856;19.030;2023-05-09T13:32:37;102007.52;;;18.75;36.02
33949;BME280;20229;49.856;19.030;2023-05-09T13:37:51;102004.79;;;18.60;37.04
33949;BME280;20229;49.856;19.030;2023-05-09T13:43:04;102006.66;;;18.87;36.57
33949;BME280;20229;49.856;19.030;2023-05-09T13:48:18;101996.93;;;19.20;36.30
33949;BME280;20229;49.856;19.030;2023-05-09T13:53:32;101985.61;;;19.35;35.57
33949;BME280;20229;49.856;19.030;2023-05-09T13:58:46;101989.83;;;19.41;34.87
33949;BME280;20229;49.856;19.030;2023-05-09T14:04:00;101975.20;;;19.39;35.08
33949;BME280;20229;49.856;19.030;2023-05-09T14:09:16;101981.63;;;19.14;35.46
33949;BME280;20229;49.856;19.030;2023-05-09T14:14:30;101972.13;;;18.80;35.32
33949;BME280;20229;49.856;19.030;2023-05-09T14:19:44;101962.59;;;18.97;36.58
33949;BME280;20229;49.856;19.030;2023-05-09T14:24:58;101952.85;;;19.04;36.59
33949;BME280;20229;49.856;19.030;2023-05-09T14:30:12;101958.27;;;19.18;35.43
33949;BME280;20229;49.856;19.030;2023-05-09T14:35:27;101954.84;;;19.15;35.07
33949;BME280;20229;49.856;19.030;2023-05-09T14:40:45;101960.17;;;19.05;35.31
33949;BME280;20229;49.856;19.030;2023-05-09T14:45:59;101937.59;;;18.98;36.22
33949;BME280;20229;49.856;19.030;2023-05-09T14:51:13;101946.22;;;18.81;36.97
33949;BME280;20229;49.856;19.030;2023-05-09T14:56:27;101954.16;;;18.73;36.13
33949;BME280;20229;49.856;19.030;2023-05-09T15:01:41;101946.77;;;18.73;36.50
33949;BME280;20229;49.856;19.030;2023-05-09T15:06:55;101926.71;;;18.70;36.41
33949;BME280;20229;49.856;19.030;2023-05-09T15:12:11;101932.46;;;18.67;36.58
33949;BME280;20229;49.856;19.030;2023-05-09T15:17:25;101922.48;;;18.64;36.18
33949;BME280;20229;49.856;19.030;2023-05-09T15:22:40;101905.65;;;18.54;36.61
33949;BME280;20229;49.856;19.030;2023-05-09T15:27:54;101907.87;;;18.49;36.95
33949;BME280;20229;49.856;19.030;2023-05-09T15:33:08;101909.18;;;18.44;35.91
33949;BME280;20229;49.856;19.030;2023-05-09T15:38:25;101899.25;;;18.41;36.48
33949;BME280;20229;49.856;19.030;2023-05-09T15:43:40;101890.16;;;18.39;36.52
33949;BME280;20229;49.856;19.030;2023-05-09T15:48:55;101898.88;;;18.33;35.66
33949;BME280;20229;49.856;19.030;2023-05-09T15:54:08;101888.58;;;18.22;37.01
33949;BME280;20229;49.856;19.030;2023-05-09T15:59:24;101888.44;;;18.11;36.24
33949;BME280;20229;49.856;19.030;2023-05-09T16:04:38;101891.83;;;18.02;36.87
33949;BME280;20229;49.856;19.030;2023-05-09T16:09:53;101887.72;;;17.95;37.09
33949;BME280;20229;49.856;19.030;2023-05-09T16:15:07;101870.59;;;17.89;36.71
33949;BME280;20229;49.856;19.030;2023-05-09T16:20:21;101876.21;;;17.74;37.64
33949;BME280;20229;49.856;19.030;2023-05-09T16:25:35;101878.36;;;17.56;37.69
33949;BME280;20229;49.856;19.030;2023-05-09T16:30:49;101874.88;;;17.39;37.26
33949;BME280;20229;49.856;19.030;2023-05-09T16:36:06;101865.62;;;17.26;37.54
33949;BME280;20229;49.856;19.030;2023-05-09T16:41:21;101855.87;;;17.20;37.09
33949;BME280;20229;49.856;19.030;2023-05-09T16:46:35;101851.38;;;17.05;37.29
33949;BME280;20229;49.856;19.030;2023-05-09T16:51:49;101864.18;;;16.92;37.85
33949;BME280;20229;49.856;19.030;2023-05-09T16:57:02;101860.47;;;16.79;38.14
33949;BME280;20229;49.856;19.030;2023-05-09T17:02:16;101854.91;;;16.64;38.84
33949;BME280;20229;49.856;19.030;2023-05-09T17:07:30;101848.97;;;16.42;38.42
33949;BME280;20229;49.856;19.030;2023-05-09T17:12:44;101845.97;;;16.16;39.19
33949;BME280;20229;49.856;19.030;2023-05-09T17:17:58;101846.30;;;15.96;39.31
33949;BME280;20229;49.856;19.030;2023-05-09T17:23:12;101842.73;;;15.80;39.38
33949;BME280;20229;49.856;19.030;2023-05-09T17:28:26;101854.46;;;15.67;39.37
33949;BME280;20229;49.856;19.030;2023-05-09T17:33:41;101860.03;;;15.50;40.42
33949;BME280;20229;49.856;19.030;2023-05-09T17:38:56;101859.36;;;15.30;41.40
33949;BME280;20229;49.856;19.030;2023-05-09T17:44:12;101861.10;;;15.16;41.03
33949;BME280;20229;49.856;19.030;2023-05-09T17:49:26;101853.73;;;15.00;41.73
33949;BME280;20229;49.856;19.030;2023-05-09T17:54:41;101860.18;;;14.83;42.28
33949;BME280;20229;49.856;19.030;2023-05-09T17:59:56;101858.45;;;14.65;41.41
33949;BME280;20229;49.856;19.030;2023-05-09T18:05:10;101852.02;;;14.49;42.49
33949;BME280;20229;49.856;19.030;2023-05-09T18:10:24;101851.84;;;14.34;43.16
33949;BME280;20229;49.856;19.030;2023-05-09T18:15:38;101860.76;;;14.22;43.06
33949;BME280;20229;49.856;19.030;2023-05-09T18:20:54;101857.85;;;14.08;43.08
33949;BME280;20229;49.856;19.030;2023-05-09T18:26:09;101865.93;;;13.94;43.93
33949;BME280;20229;49.856;19.030;2023-05-09T18:31:22;101871.31;;;13.78;44.08
33949;BME280;20229;49.856;19.030;2023-05-09T18:36:36;101883.02;;;13.64;45.44
33949;BME280;20229;49.856;19.030;2023-05-09T18:41:50;101877.64;;;13.44;45.54
33949;BME280;20229;49.856;19.030;2023-05-09T18:47:06;101891.14;;;13.29;46.65
33949;BME280;20229;49.856;19.030;2023-05-09T18:52:20;101883.11;;;13.06;47.01
33949;BME280;20229;49.856;19.030;2023-05-09T18:57:35;101886.36;;;12.95;47.25
33949;BME280;20229;49.856;19.030;2023-05-09T19:02:49;101888.77;;;12.82;47.11
33949;BME280;20229;49.856;19.030;2023-05-09T19:08:04;101888.63;;;12.66;48.34
33949;BME280;20229;49.856;19.030;2023-05-09T19:13:18;101887.75;;;12.46;48.68
33949;BME280;20229;49.856;19.030;2023-05-09T19:18:32;101890.23;;;12.31;48.92
33949;BME280;20229;49.856;19.030;2023-05-09T19:23:47;101880.38;;;12.27;48.43
33949;BME280;20229;49.856;19.030;2023-05-09T19:29:02;101886.07;;;12.23;48.42
33949;BME280;20229;49.856;19.030;2023-05-09T19:34:21;101879.14;;;12.14;48.98
33949;BME280;20229;49.856;19.030;2023-05-09T19:39:35;101878.73;;;12.03;49.14
33949;BME280;20229;49.856;19.030;2023-05-09T19:44:48;101875.83;;;11.85;50.00
33949;BME280;20229;49.856;19.030;2023-05-09T19:50:07;101881.17;;;11.66;50.91
33949;BME280;20229;49.856;19.030;2023-05-09T19:55:21;101884.73;;;11.46;52.05
33949;BME280;20229;49.856;19.030;2023-05-09T20:00:35;101885.49;;;11.28;52.79
33949;BME280;20229;49.856;19.030;2023-05-09T20:05:52;101890.86;;;11.08;53.07
33949;BME280;20229;49.856;19.030;2023-05-09T20:11:06;101897.87;;;10.91;54.13
33949;BME280;20229;49.856;19.030;2023-05-09T20:16:20;101890.39;;;10.73;55.27
33949;BME280;20229;49.856;19.030;2023-05-09T20:21:34;101895.59;;;10.56;55.60
33949;BME280;20229;49.856;19.030;2023-05-09T20:26:48;101894.40;;;10.39;56.56
33949;BME280;20229;49.856;19.030;2023-05-09T20:32:02;101889.55;;;10.21;57.10
33949;BME280;20229;49.856;19.030;2023-05-09T20:37:16;101892.91;;;10.04;58.80
33949;BME280;20229;49.856;19.030;2023-05-09T20:42:29;101890.77;;;9.87;58.88
33949;BME280;20229;49.856;19.030;2023-05-09T20:47:43;101890.35;;;9.73;59.78
33949;BME280;20229;49.856;19.030;2023-05-09T20:52:58;101905.40;;;9.58;60.11
33949;BME280;20229;49.856;19.030;2023-05-09T20:58:12;101898.66;;;9.42;60.42
33949;BME280;20229;49.856;19.030;2023-05-09T21:03:27;101894.41;;;9.33;60.73
33949;BME280;20229;49.856;19.030;2023-05-09T21:08:40;101886.61;;;9.21;61.09
33949;BME280;20229;49.856;19.030;2023-05-09T21:13:55;101892.34;;;9.12;60.71
33949;BME280;20229;49.856;19.030;2023-05-09T21:19:09;101882.63;;;9.03;60.78
33949;BME280;20229;49.856;19.030;2023-05-09T21:24:23;101895.64;;;8.93;61.31
33949;BME280;20229;49.856;19.030;2023-05-09T21:29:37;101888.83;;;8.78;61.67
33949;BME280;20229;49.856;19.030;2023-05-09T21:34:50;101886.37;;;8.69;63.00
33949;BME280;20229;49.856;19.030;2023-05-09T21:40:05;101879.48;;;8.57;62.69
33949;BME280;20229;49.856;19.030;2023-05-09T21:45:20;101874.18;;;8.53;63.42
33949;BME280;20229;49.856;19.030;2023-05-09T21:50:34;101870.88;;;8.42;63.29
33949;BME280;20229;49.856;19.030;2023-05-09T21:55:49;101873.80;;;8.34;63.95
33949;BME280;20229;49.856;19.030;2023-05-09T22:01:03;101866.91;;;8.21;64.01
33949;BME280;20229;49.856;19.030;2023-05-09T22:06:17;101870.89;;;8.07;66.62
33949;BME280;20229;49.856;19.030;2023-05-09T22:11:31;101865.89;;;7.92;66.68
33949;BME280;20229;49.856;19.030;2023-05-09T22:16:46;101858.91;;;7.82;67.24
33949;BME280;20229;49.856;19.030;2023-05-09T22:21:59;101852.89;;;7.69;67.78
33949;BME280;20229;49.856;19.030;2023-05-09T22:27:13;101859.47;;;7.60;68.08
33949;BME280;20229;49.856;19.030;2023-05-09T22:32:27;101859.77;;;7.48;68.71
33949;BME280;20229;49.856;19.030;2023-05-09T22:37:41;101856.44;;;7.37;70.38
33949;BME280;20229;49.856;19.030;2023-05-09T22:42:56;101862.18;;;7.25;69.87
33949;BME280;20229;49.856;19.030;2023-05-09T22:48:10;101852.41;;;7.16;70.47
33949;BME280;20229;49.856;19.030;2023-05-09T22:53:24;101854.43;;;7.08;69.71
33949;BME280;20229;49.856;19.030;2023-05-09T22:58:39;101852.79;;;7.01;70.02
33949;BME280;20229;49.856;19.030;2023-05-09T23:03:53;101839.48;;;6.88;70.17
33949;BME280;20229;49.856;19.030;2023-05-09T23:09:07;101848.74;;;6.80;70.80
33949;BME280;20229;49.856;19.030;2023-05-09T23:14:21;101840.86;;;6.67;71.46
33949;BME280;20229;49.856;19.030;2023-05-09T23:19:35;101839.25;;;6.59;71.41
33949;BME280;20229;49.856;19.030;2023-05-09T23:24:50;101837.73;;;6.45;72.44
33949;BME280;20229;49.856;19.030;2023-05-09T23:30:04;101827.94;;;6.38;72.78
33949;BME280;20229;49.856;19.030;2023-05-09T23:35:19;101831.69;;;6.33;72.31
33949;BME280;20229;49.856;19.030;2023-05-09T23:40:34;101829.88;;;6.32;73.66
33949;BME280;20229;49.856;19.030;2023-05-09T23:45:48;101824.40;;;6.35;72.50
33949;BME280;20229;49.856;19.030;2023-05-09T23:51:03;101817.02;;;6.41;72.23
33949;BME280;20229;49.856;19.030;2023-05-09T23:56:17;101814.14;;;6.49;71.31
